createdAt,value
2018-07-27T00:01:36.600Z,5.07
2018-07-27T00:04:06.788Z,4.30
2018-07-27T00:06:36.578Z,4.80
2018-07-27T00:09:08.089Z,4.97
2018-07-27T00:11:38.528Z,4.70
2018-07-27T00:14:08.397Z,5.20
2018-07-27T00:16:38.267Z,5.27
2018-07-27T00:19:08.290Z,5.30
2018-07-27T00:21:38.191Z,5.10
2018-07-27T00:24:08.159Z,5.10
2018-07-27T00:26:37.755Z,4.70
2018-07-27T00:29:07.984Z,4.83
2018-07-27T00:31:38.211Z,5.03
2018-07-27T00:34:08.242Z,5.43
2018-07-27T00:36:38.351Z,4.70
2018-07-27T00:39:09.854Z,5.30
2018-07-27T00:41:39.717Z,4.73
2018-07-27T00:44:09.460Z,5.20
2018-07-27T00:46:39.614Z,5.33
2018-07-27T00:49:09.782Z,5.27
2018-07-27T00:51:39.733Z,5.17
2018-07-27T00:54:09.773Z,5.23
2018-07-27T00:56:39.373Z,5.43
2018-07-27T00:59:08.872Z,4.80
2018-07-27T01:01:38.608Z,5.43
2018-07-27T01:04:08.840Z,5.00
2018-07-27T01:06:38.530Z,5.00
2018-07-27T01:09:08.295Z,5.57
2018-07-27T01:11:38.258Z,4.57
2018-07-27T01:14:08.055Z,5.20
2018-07-27T01:16:37.683Z,5.37
2018-07-27T01:19:08.468Z,5.63
2018-07-27T01:21:37.484Z,5.70
2018-07-27T01:24:07.095Z,5.40
2018-07-27T01:26:37.227Z,5.23
2018-07-27T01:29:06.669Z,5.53
2018-07-27T01:31:36.094Z,5.33
2018-07-27T01:34:05.629Z,5.43
2018-07-27T01:36:35.260Z,5.57
2018-07-27T01:39:07.708Z,5.53
2018-07-27T01:41:37.317Z,4.97
2018-07-27T01:44:06.764Z,5.70
2018-07-27T01:46:36.122Z,5.80
2018-07-27T01:49:05.517Z,5.57
2018-07-27T01:51:34.934Z,5.43
2018-07-27T01:54:04.533Z,5.10
2018-07-27T01:56:34.308Z,5.27
2018-07-27T01:59:03.820Z,6.00
2018-07-27T02:01:33.523Z,6.17
2018-07-27T02:04:03.005Z,5.53
2018-07-27T02:06:32.927Z,5.33
2018-07-27T02:09:02.274Z,5.57
2018-07-27T02:11:31.650Z,6.03
2018-07-27T02:14:01.391Z,5.87
2018-07-27T02:16:30.762Z,5.57
2018-07-27T02:19:00.216Z,5.60
2018-07-27T02:21:30.083Z,5.67
2018-07-27T02:23:59.476Z,6.13
2018-07-27T02:26:29.504Z,6.00
2018-07-27T02:28:59.124Z,6.40
2018-07-27T02:31:28.562Z,6.00
2018-07-27T02:33:58.202Z,5.87
2018-07-27T02:36:28.631Z,6.07
2018-07-27T02:38:58.096Z,5.77
2018-07-27T02:41:27.852Z,6.30
2018-07-27T02:43:58.606Z,5.87
2018-07-27T02:46:28.099Z,5.87
2018-07-27T02:48:57.937Z,6.07
2018-07-27T02:51:27.788Z,6.57
2018-07-27T02:53:57.589Z,6.10
2018-07-27T02:56:27.352Z,6.10
2018-07-27T02:58:57.287Z,6.43
2018-07-27T03:01:26.973Z,5.70
2018-07-27T03:03:56.681Z,6.13
2018-07-27T03:06:26.554Z,5.70
2018-07-27T03:08:56.137Z,5.97
2018-07-27T03:11:25.815Z,6.00
2018-07-27T03:13:55.575Z,6.20
2018-07-27T03:16:25.405Z,6.47
2018-07-27T03:18:54.950Z,6.03
2018-07-27T03:21:24.998Z,6.57
2018-07-27T03:23:55.103Z,6.57
2018-07-27T03:26:24.663Z,6.40
2018-07-27T03:28:54.679Z,5.80
2018-07-27T03:31:24.541Z,6.07
2018-07-27T03:33:58.637Z,7.03
2018-07-27T03:36:28.660Z,6.47
2018-07-27T03:38:58.409Z,6.13
2018-07-27T03:41:28.126Z,6.43
2018-07-27T03:43:58.033Z,6.23
2018-07-27T03:46:30.698Z,6.30
2018-07-27T03:49:00.268Z,6.27
2018-07-27T03:51:29.580Z,6.60
2018-07-27T03:53:59.111Z,6.03
2018-07-27T03:56:28.988Z,6.20
2018-07-27T03:58:58.591Z,7.40
2018-07-27T04:01:28.210Z,6.90
2018-07-27T04:03:58.216Z,6.47
2018-07-27T04:06:28.225Z,6.90
2018-07-27T04:08:57.942Z,6.50
2018-07-27T04:11:28.164Z,6.77
2018-07-27T04:13:57.994Z,6.47
2018-07-27T04:16:27.639Z,6.33
2018-07-27T04:18:57.722Z,6.40
2018-07-27T04:21:27.583Z,6.47
2018-07-27T04:23:57.478Z,6.73
2018-07-27T04:26:27.309Z,6.50
2018-07-27T04:28:56.912Z,5.97
2018-07-27T04:31:26.605Z,6.20
2018-07-27T04:33:56.646Z,5.90
2018-07-27T04:36:27.192Z,6.50
2018-07-27T04:38:56.862Z,6.30
2018-07-27T04:41:26.881Z,5.87
2018-07-27T04:43:56.390Z,6.40
2018-07-27T04:46:26.179Z,5.87
2018-07-27T04:48:55.871Z,6.13
2018-07-27T04:51:25.774Z,5.90
2018-07-27T04:53:55.780Z,5.93
2018-07-27T04:56:25.620Z,6.33
2018-07-27T04:58:55.272Z,6.00
2018-07-27T05:01:24.713Z,5.97
2018-07-27T05:03:54.728Z,6.20
2018-07-27T05:06:24.241Z,5.83
2018-07-27T05:08:59.091Z,6.47
2018-07-27T05:11:29.126Z,6.23
2018-07-27T05:13:58.879Z,5.80
2018-07-27T05:16:28.591Z,6.70
2018-07-27T05:18:58.684Z,6.00
2018-07-27T05:21:28.287Z,6.33
2018-07-27T05:23:57.797Z,6.50
2018-07-27T05:26:27.678Z,6.93
2018-07-27T05:28:57.213Z,6.43
2018-07-27T05:31:26.955Z,6.23
2018-07-27T05:33:57.139Z,6.60
2018-07-27T05:36:26.901Z,6.90
2018-07-27T05:38:56.826Z,6.90
2018-07-27T05:41:27.067Z,6.47
2018-07-27T05:43:56.672Z,6.37
2018-07-27T05:46:26.439Z,6.50
2018-07-27T05:48:56.461Z,6.53
2018-07-27T05:51:26.895Z,5.90
2018-07-27T05:53:57.230Z,6.57
2018-07-27T05:56:28.420Z,6.57
2018-07-27T05:58:57.962Z,5.90
2018-07-27T06:01:28.095Z,6.03
2018-07-27T06:03:57.877Z,6.30
2018-07-27T06:06:27.454Z,6.47
2018-07-27T06:08:57.048Z,7.33
2018-07-27T06:11:27.293Z,7.20
2018-07-27T06:13:57.048Z,6.97
2018-07-27T06:16:26.731Z,6.47
2018-07-27T06:18:56.735Z,7.10
2018-07-27T06:21:26.826Z,7.17
2018-07-27T06:23:57.070Z,6.80
2018-07-27T06:26:26.938Z,7.67
2018-07-27T06:28:56.813Z,6.93
2018-07-27T06:31:26.514Z,7.07
2018-07-27T06:33:56.486Z,7.03
2018-07-27T06:36:26.079Z,7.00
2018-07-27T06:38:55.468Z,6.70
2018-07-27T06:41:25.220Z,7.07
2018-07-27T06:43:54.667Z,7.00
2018-07-27T06:46:24.075Z,7.00
2018-07-27T06:48:53.636Z,6.50
2018-07-27T06:51:23.098Z,6.17
2018-07-27T06:53:52.528Z,6.13
2018-07-27T06:56:22.172Z,6.50
2018-07-27T06:58:51.939Z,6.47
2018-07-27T07:01:21.352Z,6.30
2018-07-27T07:03:51.050Z,6.77
2018-07-27T07:06:20.401Z,5.40
2018-07-27T07:08:49.781Z,5.43
2018-07-27T07:11:19.429Z,5.43
2018-07-27T07:13:49.080Z,5.80
2018-07-27T07:16:18.521Z,5.33
2018-07-27T07:18:48.157Z,6.00
2018-07-27T07:21:17.706Z,5.87
2018-07-27T07:23:47.246Z,4.63
2018-07-27T07:26:16.752Z,5.33
2018-07-27T07:28:46.363Z,6.00
2018-07-27T07:31:15.760Z,5.37
2018-07-27T07:33:49.669Z,5.80
2018-07-27T07:36:19.404Z,5.00
2018-07-27T07:38:49.164Z,4.93
2018-07-27T07:41:18.580Z,5.13
2018-07-27T07:43:47.951Z,5.30
2018-07-27T07:46:17.666Z,5.07
2018-07-27T07:48:47.261Z,5.07
2018-07-27T07:51:16.819Z,5.70
2018-07-27T07:53:46.889Z,5.43
2018-07-27T07:56:16.262Z,5.40
2018-07-27T07:58:45.994Z,5.00
2018-07-27T08:01:15.626Z,5.03
2018-07-27T08:03:45.133Z,4.90
2018-07-27T08:06:14.717Z,5.37
2018-07-27T08:08:44.546Z,6.47
2018-07-27T08:11:14.042Z,6.30
2018-07-27T08:13:45.177Z,5.87
2018-07-27T08:16:15.731Z,6.53
2018-07-27T08:18:45.803Z,7.03
2018-07-27T08:21:15.798Z,6.20
2018-07-27T08:23:46.021Z,6.20
2018-07-27T08:26:50.724Z,4.63
2018-07-27T08:29:22.510Z,4.80
2018-07-27T08:31:53.521Z,5.72
2018-07-27T08:34:23.791Z,6.00
2018-07-27T08:36:53.856Z,6.43
2018-07-27T08:39:27.467Z,5.77
2018-07-27T08:41:57.515Z,7.33
2018-07-27T08:44:29.268Z,6.83
2018-07-27T08:46:59.164Z,7.37
2018-07-27T08:49:29.314Z,6.10
2018-07-27T08:51:59.411Z,6.60
2018-07-27T08:54:29.460Z,6.90
2018-07-27T08:57:06.536Z,5.85
2018-07-27T08:59:36.153Z,5.83
2018-07-27T09:02:06.227Z,5.67
2018-07-27T09:04:36.614Z,6.77
2018-07-27T09:07:06.540Z,6.33
2018-07-27T09:09:36.274Z,6.45
2018-07-27T09:12:06.985Z,6.42
2018-07-27T09:14:37.141Z,7.12
2018-07-27T09:17:06.254Z,5.80
2018-07-27T09:19:36.350Z,6.58
2018-07-27T09:22:05.900Z,6.35
2018-07-27T09:24:35.609Z,6.37
2018-07-27T09:27:05.655Z,6.42
2018-07-27T09:29:35.228Z,6.22
2018-07-27T09:32:05.389Z,6.20
2018-07-27T09:34:35.656Z,6.70
2018-07-27T09:37:05.662Z,5.95
2018-07-27T09:39:35.340Z,6.95
2018-07-27T09:42:05.565Z,7.33
2018-07-27T09:44:35.496Z,6.95
2018-07-27T09:47:05.788Z,5.75
2018-07-27T09:49:37.868Z,5.70
2018-07-27T09:52:08.446Z,6.30
2018-07-27T09:54:38.336Z,6.53
2018-07-27T09:57:07.552Z,6.37
2018-07-27T09:59:37.419Z,6.85
2018-07-27T10:02:07.326Z,6.83
2018-07-27T10:04:37.311Z,6.75
2018-07-27T10:07:07.061Z,6.87
2018-07-27T10:09:37.311Z,6.12
2018-07-27T10:12:07.296Z,6.17
2018-07-27T10:14:37.161Z,6.40
2018-07-27T10:17:07.543Z,6.12
2018-07-27T10:19:37.580Z,6.15
2018-07-27T10:22:09.380Z,6.60
2018-07-27T10:24:39.176Z,5.67
2018-07-27T10:27:08.839Z,5.75
2018-07-27T10:29:39.312Z,5.85
2018-07-27T10:32:10.200Z,5.45
2018-07-27T10:34:40.282Z,5.60
2018-07-27T10:37:10.032Z,5.40
2018-07-27T10:39:41.632Z,5.20
2018-07-27T10:42:11.401Z,5.60
2018-07-27T10:44:41.664Z,5.60
2018-07-27T10:47:11.750Z,5.30
2018-07-27T10:49:41.389Z,5.20
2018-07-27T10:52:11.254Z,5.53
2018-07-27T10:54:41.473Z,4.97
2018-07-27T10:57:11.182Z,6.87
2018-07-27T10:59:41.745Z,4.85
2018-07-27T11:02:12.282Z,5.05
2018-07-27T11:04:41.771Z,5.12
2018-07-27T11:07:10.921Z,5.12
2018-07-27T11:09:41.026Z,5.03
2018-07-27T11:12:10.278Z,4.53
2018-07-27T11:14:40.482Z,4.67
2018-07-27T11:17:10.557Z,4.65
2018-07-27T11:19:40.232Z,4.47
2018-07-27T11:22:09.956Z,4.65
2018-07-27T11:24:39.873Z,4.85
2018-07-27T11:27:09.597Z,4.80
2018-07-27T11:29:39.298Z,4.65
2018-07-27T11:32:09.199Z,5.00
2018-07-27T11:34:39.141Z,5.22
2018-07-27T11:37:09.599Z,5.00
2018-07-27T11:39:39.333Z,9.75
2018-07-27T11:42:09.592Z,5.00
2018-07-27T11:44:39.155Z,4.65
2018-07-27T11:47:10.180Z,3.72
2018-07-27T11:49:39.478Z,4.15
2018-07-27T11:52:10.101Z,4.25
2018-07-27T11:54:42.855Z,4.15
2018-07-27T11:57:12.549Z,4.20
2018-07-27T11:59:42.317Z,4.47
2018-07-27T12:02:12.106Z,4.40
2018-07-27T12:04:42.003Z,4.25
2018-07-27T12:07:12.429Z,3.98
2018-07-27T12:09:42.372Z,4.78
2018-07-27T12:12:12.310Z,4.50
2018-07-27T12:14:42.398Z,4.60
2018-07-27T12:17:13.176Z,4.40
2018-07-27T12:19:42.888Z,5.12
2018-07-27T12:22:13.172Z,4.42
2018-07-27T12:24:43.189Z,4.65
2018-07-27T12:27:12.910Z,4.28
2018-07-27T12:29:42.273Z,3.70
2018-07-27T12:32:12.036Z,4.58
2018-07-27T12:34:41.598Z,4.25
2018-07-27T12:37:11.548Z,4.87
2018-07-27T12:39:41.366Z,4.65
2018-07-27T12:42:11.688Z,5.03
2018-07-27T12:44:42.683Z,4.92
2018-07-27T12:47:13.104Z,5.50
2018-07-27T12:49:44.280Z,4.30
2018-07-27T12:52:14.693Z,4.47
2018-07-27T12:54:44.653Z,4.62
2018-07-27T12:57:14.289Z,5.10
2018-07-27T12:59:44.379Z,4.80
2018-07-27T13:02:15.120Z,5.40
2018-07-27T13:04:44.633Z,4.60
2018-07-27T13:07:14.716Z,4.75
2018-07-27T13:09:45.244Z,4.50
2018-07-27T13:12:15.189Z,7.25
2018-07-27T13:14:44.389Z,4.58
2018-07-27T13:17:14.661Z,4.25
2018-07-27T13:19:44.182Z,4.40
2018-07-27T13:22:13.994Z,4.35
2018-07-27T13:24:58.845Z,3.67
2018-07-27T13:27:13.827Z,4.08
2018-07-27T13:29:43.846Z,3.90
2018-07-27T13:32:13.778Z,3.62
2018-07-27T13:34:49.563Z,3.70
2018-07-27T13:37:20.191Z,3.10
2018-07-27T13:39:50.221Z,3.20
2018-07-27T13:42:23.889Z,3.05
2018-07-27T13:44:53.711Z,3.50
2018-07-27T13:47:23.277Z,3.60
2018-07-27T13:49:53.171Z,3.70
2018-07-27T13:52:23.114Z,3.77
2018-07-27T13:54:53.022Z,3.47
2018-07-27T13:57:23.186Z,3.50
2018-07-27T13:59:59.213Z,3.50
2018-07-27T14:02:29.439Z,3.77
2018-07-27T14:04:59.646Z,3.65
2018-07-27T14:08:32.688Z,3.90
2018-07-27T14:11:02.752Z,3.72
2018-07-27T14:13:32.798Z,3.67
2018-07-27T14:16:02.889Z,3.67
2018-07-27T14:18:33.005Z,3.30
2018-07-27T14:21:07.171Z,3.67
2018-07-27T14:23:37.916Z,3.25
2018-07-27T14:26:09.194Z,3.50
2018-07-27T14:28:39.837Z,3.67
2018-07-27T14:31:09.914Z,3.85
2018-07-27T14:33:39.306Z,4.35
2018-07-27T14:36:09.329Z,4.45
2018-07-27T14:38:38.938Z,4.90
2018-07-27T14:41:08.981Z,3.95
2018-07-27T14:43:39.019Z,4.25
2018-07-27T14:46:14.616Z,4.10
2018-07-27T14:48:44.793Z,3.67
2018-07-27T14:51:14.504Z,3.80
2018-07-27T14:53:44.344Z,3.47
2018-07-27T14:56:14.279Z,4.00
2018-07-27T14:58:43.920Z,3.90
2018-07-27T15:01:13.794Z,4.40
2018-07-27T15:03:43.934Z,4.15
2018-07-27T15:06:13.384Z,3.77
2018-07-27T15:08:43.283Z,4.33
2018-07-27T15:11:13.662Z,4.08
2018-07-27T15:13:43.824Z,4.40
2018-07-27T20:30:16.079Z,6.70
2018-07-27T20:32:47.619Z,6.80
2018-07-27T20:35:18.803Z,5.67
2018-07-27T20:46:45.622Z,6.42
2018-07-27T20:54:58.821Z,6.37
2018-07-27T20:57:27.875Z,6.03
2018-07-27T20:59:57.361Z,5.75
2018-07-27T21:02:27.277Z,5.95
2018-07-27T21:05:03.413Z,6.80
2018-07-27T21:07:33.045Z,7.15
2018-07-27T21:10:02.887Z,6.72
2018-07-27T21:12:33.008Z,6.37
2018-07-27T21:15:03.624Z,6.00
2018-07-27T21:17:40.347Z,6.62
2018-07-27T21:20:10.556Z,6.30
2018-07-27T21:22:40.281Z,6.15
2018-07-27T21:25:09.900Z,6.10
2018-07-27T21:27:39.892Z,6.22
2018-07-27T21:30:09.783Z,6.35
2018-07-27T21:32:39.374Z,6.28
2018-07-27T21:35:09.999Z,6.40
2018-07-27T21:37:39.971Z,6.97
2018-07-27T21:40:09.823Z,6.20
2018-07-27T21:42:39.852Z,6.70
2018-07-27T21:45:09.564Z,6.83
2018-07-27T21:47:38.760Z,6.58
2018-07-27T21:50:08.356Z,6.80
2018-07-27T21:52:38.072Z,6.47
2018-07-27T21:55:07.369Z,7.00
2018-07-27T21:57:36.620Z,6.40
2018-07-27T22:00:09.439Z,6.57
2018-07-27T22:02:39.681Z,6.47
2018-07-27T22:05:09.371Z,6.47
2018-07-27T22:07:39.413Z,6.67
2018-07-27T22:10:09.618Z,6.63
2018-07-27T22:12:39.486Z,6.30
2018-07-27T22:15:15.594Z,6.13
2018-07-27T22:17:46.155Z,7.00
2018-07-27T22:20:15.915Z,6.53
2018-07-27T22:22:47.481Z,6.63
2018-07-27T22:25:17.396Z,7.07
2018-07-27T22:27:47.749Z,7.10
2018-07-27T22:30:18.071Z,6.30
2018-07-27T22:32:48.114Z,6.93
2018-07-27T22:35:17.908Z,6.83
2018-07-27T22:37:48.517Z,6.33
2018-07-27T22:40:17.762Z,6.97
2018-07-27T22:42:47.774Z,6.17
2018-07-27T22:45:18.235Z,6.70
2018-07-27T22:47:48.435Z,7.27
2018-07-27T22:50:18.260Z,6.60
2018-07-27T22:52:48.347Z,6.70
2018-07-27T22:55:18.262Z,7.33
2018-07-27T22:57:47.796Z,7.37
2018-07-27T23:00:17.819Z,6.37
2018-07-27T23:02:47.768Z,6.90
2018-07-27T23:05:16.941Z,6.37
2018-07-27T23:07:47.099Z,6.73
2018-07-27T23:10:17.200Z,6.63
2018-07-27T23:12:46.827Z,6.83
2018-07-27T23:15:16.763Z,7.43
2018-07-27T23:17:46.668Z,6.70
2018-07-27T23:20:16.239Z,6.83
2018-07-27T23:22:45.480Z,6.47
2018-07-27T23:25:16.572Z,6.43
2018-07-27T23:27:46.704Z,6.67
2018-07-27T23:30:15.936Z,5.80
2018-07-27T23:32:45.957Z,6.80
2018-07-27T23:35:15.990Z,6.50
2018-07-27T23:37:45.681Z,5.93
2018-07-27T23:40:15.920Z,5.53
2018-07-27T23:42:45.715Z,5.30
2018-07-27T23:45:15.568Z,5.53
2018-07-27T23:47:45.490Z,5.03
2018-07-27T23:50:15.636Z,4.87
2018-07-27T23:52:45.168Z,4.70
2018-07-27T23:55:15.100Z,5.07
2018-07-27T23:57:44.942Z,5.30
